createdAt,value
2019-01-30T00:02:07.644Z,12.20
2019-01-30T00:04:36.751Z,13.28
2019-01-30T00:07:05.950Z,15.38
2019-01-30T00:09:35.100Z,11.73
2019-01-30T00:12:04.514Z,13.58
2019-01-30T00:14:33.646Z,11.88
2019-01-30T00:17:02.822Z,13.62
2019-01-30T00:19:31.939Z,13.20
2019-01-30T00:22:01.161Z,14.85
2019-01-30T00:24:30.294Z,14.83
2019-01-30T00:26:59.431Z,11.57
2019-01-30T00:29:28.625Z,14.25
2019-01-30T00:31:57.786Z,10.72
2019-01-30T00:34:26.922Z,12.07
2019-01-30T00:36:56.088Z,12.85
2019-01-30T00:39:25.260Z,10.50
2019-01-30T00:41:54.434Z,11.25
2019-01-30T00:44:23.521Z,13.30
2019-01-30T00:46:52.676Z,13.90
2019-01-30T00:49:21.835Z,11.40
2019-01-30T00:51:50.954Z,13.68
2019-01-30T00:54:20.095Z,12.55
2019-01-30T00:56:49.243Z,13.50
2019-01-30T00:59:18.434Z,11.40
2019-01-30T01:01:47.548Z,10.93
2019-01-30T01:04:16.708Z,13.20
2019-01-30T01:06:45.838Z,12.73
2019-01-30T01:09:15.145Z,12.33
2019-01-30T01:11:44.243Z,12.37
2019-01-30T01:14:13.564Z,11.60
2019-01-30T01:16:42.728Z,13.43
2019-01-30T01:19:11.827Z,12.90
2019-01-30T01:21:41.031Z,14.10
2019-01-30T01:24:10.123Z,13.88
2019-01-30T01:26:39.430Z,14.53
2019-01-30T01:29:08.556Z,13.20
2019-01-30T01:31:37.725Z,11.95
2019-01-30T01:34:07.046Z,13.80
2019-01-30T01:36:36.286Z,14.15
2019-01-30T01:39:07.970Z,12.80
2019-01-30T01:41:37.117Z,12.20
2019-01-30T01:44:06.231Z,16.02
2019-01-30T01:46:35.483Z,12.88
2019-01-30T01:49:04.759Z,15.15
2019-01-30T01:51:33.924Z,15.32
2019-01-30T01:54:03.062Z,14.35
2019-01-30T01:56:32.231Z,16.20
2019-01-30T01:59:01.397Z,15.08
2019-01-30T02:01:30.616Z,17.55
2019-01-30T02:03:59.789Z,15.85
2019-01-30T02:06:29.046Z,15.10
2019-01-30T02:08:58.236Z,17.77
2019-01-30T02:11:27.441Z,16.82
2019-01-30T02:13:56.629Z,18.77
2019-01-30T02:16:25.823Z,16.23
2019-01-30T02:18:54.961Z,15.03
2019-01-30T02:21:24.585Z,17.27
2019-01-30T02:23:53.771Z,18.00
2019-01-30T02:26:22.924Z,20.05
2019-01-30T02:28:52.070Z,16.62
2019-01-30T02:31:21.310Z,16.93
2019-01-30T02:33:50.472Z,18.75
2019-01-30T02:36:19.636Z,18.95
2019-01-30T02:38:48.856Z,16.50
2019-01-30T02:41:17.985Z,19.95
2019-01-30T02:43:49.800Z,20.50
2019-01-30T02:46:18.894Z,21.47
2019-01-30T02:48:48.214Z,18.62
2019-01-30T02:51:17.345Z,23.27
2019-01-30T02:53:46.446Z,23.90
2019-01-30T02:56:15.689Z,18.82
2019-01-30T02:58:44.851Z,20.90
2019-01-30T03:01:14.012Z,21.00
2019-01-30T03:03:43.220Z,25.05
2019-01-30T03:06:12.371Z,19.80
2019-01-30T03:08:41.794Z,19.50
2019-01-30T03:11:11.190Z,19.75
2019-01-30T03:13:40.381Z,19.87
2019-01-30T03:16:09.586Z,20.32
2019-01-30T03:18:38.796Z,18.35
2019-01-30T03:21:07.956Z,18.95
2019-01-30T03:23:37.204Z,20.70
2019-01-30T03:26:06.319Z,19.27
2019-01-30T03:28:35.445Z,18.17
2019-01-30T03:31:16.928Z,17.17
2019-01-30T03:33:35.475Z,17.52
2019-01-30T03:36:04.694Z,19.30
2019-01-30T03:38:33.941Z,20.08
2019-01-30T03:41:03.065Z,17.82
2019-01-30T03:43:32.437Z,16.37
2019-01-30T03:46:01.744Z,23.90
2019-01-30T03:48:30.923Z,18.80
2019-01-30T03:51:00.096Z,19.35
2019-01-30T03:53:29.298Z,17.73
2019-01-30T03:55:58.461Z,19.40
2019-01-30T03:58:27.594Z,19.35
2019-01-30T04:00:56.692Z,27.05
2019-01-30T04:03:25.854Z,18.12
2019-01-30T04:05:55.176Z,20.85
2019-01-30T04:08:24.407Z,18.75
2019-01-30T04:10:53.470Z,19.45
2019-01-30T04:13:22.821Z,20.50
2019-01-30T04:15:51.922Z,19.00
2019-01-30T04:18:21.067Z,18.00
2019-01-30T04:20:50.205Z,15.48
2019-01-30T04:23:19.356Z,18.42
2019-01-30T04:25:48.743Z,18.00
2019-01-30T04:28:18.007Z,17.87
2019-01-30T04:30:47.264Z,20.60
2019-01-30T04:33:16.604Z,24.35
2019-01-30T04:35:45.961Z,21.23
2019-01-30T04:38:15.268Z,20.45
2019-01-30T04:40:44.521Z,18.52
2019-01-30T04:43:13.656Z,16.75
2019-01-30T04:45:42.799Z,16.55
2019-01-30T04:48:12.079Z,21.48
2019-01-30T04:50:41.455Z,16.67
2019-01-30T04:53:11.985Z,17.12
2019-01-30T04:55:41.081Z,18.52
2019-01-30T04:58:10.348Z,18.02
2019-01-30T05:00:39.575Z,16.40
2019-01-30T05:03:08.680Z,16.10
2019-01-30T05:05:39.435Z,17.37
2019-01-30T05:08:08.695Z,15.90
2019-01-30T05:10:37.809Z,18.85
2019-01-30T05:13:07.059Z,21.45
2019-01-30T05:15:36.241Z,25.17
2019-01-30T05:18:06.765Z,16.35
2019-01-30T05:20:35.978Z,18.12
2019-01-30T05:23:05.179Z,17.62
2019-01-30T05:25:37.290Z,17.50
2019-01-30T05:28:06.701Z,17.20
2019-01-30T05:30:36.301Z,18.20
2019-01-30T05:33:05.867Z,19.95
2019-01-30T05:36:11.840Z,19.12
2019-01-30T05:38:41.267Z,17.95
2019-01-30T05:41:10.670Z,17.27
2019-01-30T05:43:42.506Z,18.90
2019-01-30T05:46:11.077Z,17.45
2019-01-30T05:48:40.389Z,18.05
2019-01-30T05:51:09.816Z,17.42
2019-01-30T05:53:39.281Z,18.60
2019-01-30T05:56:08.626Z,18.52
2019-01-30T05:58:39.374Z,18.10
2019-01-30T06:01:08.826Z,16.30
2019-01-30T06:03:44.119Z,16.87
2019-01-30T06:06:15.318Z,17.00
2019-01-30T06:08:42.299Z,18.67
2019-01-30T06:11:18.753Z,17.45
2019-01-30T06:13:45.300Z,16.77
2019-01-30T06:16:18.505Z,16.80
2019-01-30T06:18:49.787Z,17.48
2019-01-30T06:21:22.277Z,19.92
2019-01-30T06:23:51.962Z,16.82
2019-01-30T06:26:26.100Z,18.55
2019-01-30T06:28:58.263Z,19.62
2019-01-30T06:31:27.658Z,19.23
2019-01-30T06:34:03.301Z,22.42
2019-01-30T06:36:28.258Z,19.42
2019-01-30T06:38:57.857Z,18.67
2019-01-30T06:41:41.702Z,19.73
2019-01-30T06:44:00.410Z,16.70
2019-01-30T06:46:31.490Z,17.83
2019-01-30T06:49:02.855Z,17.02
2019-01-30T06:51:31.927Z,17.77
2019-01-30T06:54:01.238Z,18.02
2019-01-30T06:56:30.490Z,17.95
2019-01-30T06:58:59.655Z,17.07
2019-01-30T07:01:28.836Z,17.77
2019-01-30T07:03:59.363Z,21.33
2019-01-30T07:06:28.548Z,19.35
2019-01-30T07:08:57.758Z,19.62
2019-01-30T07:11:26.852Z,19.25
2019-01-30T07:13:56.024Z,20.75
2019-01-30T07:16:25.105Z,20.80
2019-01-30T07:18:54.208Z,19.80
2019-01-30T07:21:23.379Z,20.35
2019-01-30T07:23:52.702Z,21.45
2019-01-30T07:26:21.833Z,19.48
2019-01-30T07:28:50.996Z,22.32
2019-01-30T07:31:20.131Z,19.75
2019-01-30T07:33:49.218Z,19.67
2019-01-30T07:36:18.399Z,20.93
2019-01-30T07:38:47.450Z,22.80
2019-01-30T07:41:16.610Z,20.27
2019-01-30T07:43:45.696Z,21.82
2019-01-30T07:46:14.881Z,25.45
2019-01-30T07:48:43.968Z,21.33
2019-01-30T07:51:15.707Z,21.42
2019-01-30T07:53:43.898Z,22.62
2019-01-30T07:56:13.028Z,19.75
2019-01-30T07:58:42.176Z,21.15
2019-01-30T08:01:11.405Z,22.55
2019-01-30T08:03:40.573Z,24.02
2019-01-30T08:06:09.744Z,24.90
2019-01-30T08:08:38.855Z,24.77
2019-01-30T08:11:09.268Z,24.15
2019-01-30T08:13:38.314Z,22.95
2019-01-30T08:16:07.376Z,23.42
2019-01-30T08:18:36.503Z,23.35
2019-01-30T08:21:05.639Z,23.05
2019-01-30T08:23:34.975Z,22.98
2019-01-30T08:26:04.280Z,21.07
2019-01-30T08:28:33.476Z,22.90
2019-01-30T08:31:03.062Z,21.68
2019-01-30T08:33:32.154Z,24.35
2019-01-30T08:36:01.277Z,23.77
2019-01-30T08:38:30.407Z,23.30
2019-01-30T08:40:59.507Z,22.07
2019-01-30T08:43:28.661Z,20.17
2019-01-30T08:45:57.803Z,21.62
2019-01-30T08:48:28.523Z,22.45
2019-01-30T08:50:57.805Z,27.25
2019-01-30T08:53:26.934Z,25.20
2019-01-30T08:55:56.059Z,23.98
2019-01-30T08:58:25.178Z,22.22
2019-01-30T09:00:54.299Z,22.05
2019-01-30T09:03:23.466Z,23.10
2019-01-30T09:05:52.599Z,26.12
2019-01-30T09:08:21.748Z,23.80
2019-01-30T09:10:50.851Z,23.30
2019-01-30T09:13:20.008Z,24.65
2019-01-30T09:15:49.270Z,25.30
2019-01-30T09:18:18.390Z,24.35
2019-01-30T09:20:47.631Z,23.57
2019-01-30T09:23:16.752Z,22.27
2019-01-30T09:25:45.977Z,22.70
2019-01-30T09:28:15.101Z,29.82
2019-01-30T09:30:44.320Z,23.27
2019-01-30T09:33:13.485Z,26.65
2019-01-30T09:35:42.671Z,32.35
2019-01-30T09:38:11.813Z,27.15
2019-01-30T09:40:41.033Z,30.45
2019-01-30T09:43:10.241Z,30.08
2019-01-30T09:45:39.357Z,31.33
2019-01-30T09:48:08.626Z,30.95
2019-01-30T09:50:37.799Z,32.17
2019-01-30T09:53:06.897Z,35.00
2019-01-30T09:55:36.036Z,34.65
2019-01-30T09:58:05.144Z,31.62
2019-01-30T10:00:36.251Z,33.70
2019-01-30T10:03:05.345Z,34.70
2019-01-30T10:05:34.523Z,37.88
2019-01-30T10:08:03.667Z,36.28
2019-01-30T10:10:34.672Z,57.45
2019-01-30T10:13:03.939Z,31.50
2019-01-30T10:15:37.423Z,32.10
2019-01-30T10:18:06.890Z,36.28
2019-01-30T10:20:36.655Z,35.90
2019-01-30T10:23:05.949Z,38.80
2019-01-30T10:25:35.045Z,45.03
2019-01-30T10:28:04.280Z,41.00
2019-01-30T10:30:35.129Z,30.10
2019-01-30T10:33:04.226Z,43.05
2019-01-30T10:35:33.311Z,29.50
2019-01-30T10:38:02.427Z,29.02
2019-01-30T10:40:31.538Z,30.62
2019-01-30T10:43:00.679Z,33.98
2019-01-30T10:45:29.774Z,30.23
2019-01-30T10:47:58.879Z,30.90
2019-01-30T10:50:29.013Z,33.40
2019-01-30T10:52:58.201Z,33.58
2019-01-30T10:55:28.869Z,36.73
2019-01-30T10:57:59.586Z,27.65
2019-01-30T11:00:34.431Z,27.52
2019-01-30T11:03:03.611Z,25.32
2019-01-30T11:05:32.777Z,31.55
2019-01-30T11:08:01.957Z,27.13
2019-01-30T11:10:31.057Z,26.40
2019-01-30T11:13:00.253Z,27.62
2019-01-30T11:15:29.422Z,32.13
2019-01-30T11:17:58.604Z,31.25
2019-01-30T11:20:29.834Z,34.33
2019-01-30T11:22:59.142Z,31.87
2019-01-30T11:25:31.015Z,29.72
2019-01-30T11:28:00.230Z,22.33
2019-01-30T11:30:29.419Z,27.67
2019-01-30T11:32:58.620Z,27.35
2019-01-30T11:35:27.887Z,29.70
2019-01-30T11:37:57.266Z,30.75
2019-01-30T11:40:26.561Z,29.77
2019-01-30T11:42:55.888Z,34.67
2019-01-30T11:45:30.632Z,29.80
2019-01-30T11:48:01.516Z,30.80
2019-01-30T11:50:30.823Z,29.63
2019-01-30T11:53:00.106Z,30.52
2019-01-30T11:55:29.388Z,34.65
2019-01-30T11:57:58.808Z,33.78
2019-01-30T12:00:33.403Z,32.05
2019-01-30T12:03:06.251Z,38.17
2019-01-30T12:05:35.624Z,32.13
2019-01-30T12:08:07.289Z,37.05
2019-01-30T12:10:37.219Z,39.15
2019-01-30T12:13:06.407Z,36.45
2019-01-30T12:15:38.594Z,36.95
2019-01-30T12:18:08.015Z,39.92
2019-01-30T12:20:40.167Z,40.08
2019-01-30T12:23:09.417Z,40.25
2019-01-30T12:25:38.778Z,39.23
2019-01-30T12:28:08.097Z,40.50
2019-01-30T12:30:37.301Z,40.52
2019-01-30T12:33:08.597Z,41.00
2019-01-30T12:35:39.061Z,39.00
2019-01-30T12:38:08.313Z,39.27
2019-01-30T12:40:37.580Z,37.25
2019-01-30T12:43:06.929Z,39.92
2019-01-30T12:45:36.591Z,37.45
2019-01-30T12:48:06.194Z,41.85
2019-01-30T12:50:35.445Z,40.40
2019-01-30T12:53:06.344Z,37.75
2019-01-30T12:55:35.690Z,39.73
2019-01-30T12:58:04.901Z,42.30
2019-01-30T13:00:38.796Z,39.08
2019-01-30T13:03:07.404Z,40.73
2019-01-30T13:05:36.583Z,42.33
2019-01-30T13:08:09.010Z,42.33
2019-01-30T13:10:38.209Z,38.20
2019-01-30T13:13:07.410Z,39.92
2019-01-30T13:15:36.692Z,35.28
2019-01-30T13:18:17.551Z,38.92
2019-01-30T13:20:39.786Z,35.98
2019-01-30T13:23:08.616Z,35.48
2019-01-30T13:25:39.028Z,35.80
2019-01-30T13:28:08.271Z,35.40
2019-01-30T13:30:43.628Z,34.48
2019-01-30T13:33:12.153Z,34.95
2019-01-30T13:35:42.625Z,38.40
2019-01-30T13:38:11.961Z,40.33
2019-01-30T13:40:43.182Z,38.02
2019-01-30T13:43:12.383Z,38.13
2019-01-30T13:45:41.484Z,39.33
2019-01-30T13:48:15.714Z,37.73
2019-01-30T13:50:44.947Z,38.48
2019-01-30T13:53:14.479Z,41.50
2019-01-30T13:55:45.211Z,38.00
2019-01-30T13:58:14.309Z,40.00
2019-01-30T14:00:43.550Z,41.90
2019-01-30T14:03:12.876Z,43.92
2019-01-30T14:05:42.085Z,45.85
2019-01-30T14:08:12.696Z,42.20
2019-01-30T14:10:41.899Z,47.25
2019-01-30T14:13:11.173Z,44.13
2019-01-30T14:15:41.572Z,43.35
2019-01-30T14:18:15.242Z,42.70
2019-01-30T14:20:41.686Z,42.08
2019-01-30T14:23:10.888Z,43.80
2019-01-30T14:25:40.157Z,41.95
2019-01-30T14:28:09.381Z,40.65
2019-01-30T14:30:41.451Z,44.45
2019-01-30T14:33:10.645Z,34.92
2019-01-30T14:35:46.506Z,50.80
2019-01-30T14:38:15.701Z,53.40
2019-01-30T14:40:44.977Z,49.27
2019-01-30T14:43:14.200Z,45.85
2019-01-30T14:46:06.712Z,49.85
2019-01-30T14:48:37.226Z,55.45
2019-01-30T14:51:32.615Z,52.35
2019-01-30T14:54:03.314Z,51.35
2019-01-30T14:56:33.048Z,52.33
2019-01-30T14:59:03.830Z,51.95
2019-01-30T15:02:20.440Z,47.70
2019-01-30T15:04:49.781Z,48.80
2019-01-30T15:07:47.297Z,48.00
2019-01-30T15:10:44.733Z,50.00
2019-01-30T15:13:12.859Z,53.85
2019-01-30T15:16:36.281Z,53.17
2019-01-30T15:19:27.503Z,53.75
2019-01-30T15:24:34.286Z,50.90
2019-01-30T15:27:36.665Z,50.73
2019-01-30T15:30:57.285Z,51.48
2019-01-30T15:34:58.291Z,57.45
2019-01-30T15:36:42.517Z,55.63
2019-01-30T15:39:23.168Z,50.48
2019-01-30T15:41:50.143Z,51.00
2019-01-30T15:44:19.544Z,51.10
2019-01-30T15:46:51.583Z,53.52
2019-01-30T15:49:26.192Z,51.83
2019-01-30T15:52:26.995Z,51.77
2019-01-30T15:55:00.676Z,51.28
2019-01-30T16:01:36.965Z,51.10
2019-01-30T16:04:48.215Z,55.30
2019-01-30T16:07:24.883Z,61.03
2019-01-30T16:09:56.027Z,61.65
2019-01-30T16:12:28.597Z,65.50
2019-01-30T16:15:03.498Z,66.97
2019-01-30T16:17:34.787Z,60.60
2019-01-30T16:20:03.890Z,55.85
2019-01-30T16:22:40.612Z,57.38
2019-01-30T16:25:09.970Z,53.25
2019-01-30T16:27:44.586Z,56.95
2019-01-30T16:30:18.915Z,52.00
2019-01-30T16:32:50.544Z,51.13
2019-01-30T16:35:23.988Z,55.92
2019-01-30T16:37:53.339Z,57.13
2019-01-30T16:40:24.067Z,64.33
2019-01-30T16:42:57.471Z,59.95
2019-01-30T16:45:30.922Z,63.55
2019-01-30T16:48:00.504Z,59.75
2019-01-30T16:50:46.819Z,57.30
2019-01-30T16:53:50.688Z,56.13
2019-01-30T16:57:12.644Z,62.95
2019-01-30T16:59:34.553Z,59.03
2019-01-30T17:02:27.408Z,60.88
2019-01-30T17:05:11.350Z,61.26
2019-01-30T17:12:49.733Z,63.65
2019-01-30T17:18:39.074Z,94.13
2019-01-30T17:21:20.654Z,67.53
2019-01-30T17:23:59.602Z,70.83
2019-01-30T17:27:48.556Z,66.80
2019-01-30T17:29:57.566Z,59.95
2019-01-30T17:36:17.922Z,61.10
2019-01-30T17:38:44.618Z,92.88
2019-01-30T17:42:21.884Z,71.70
2019-01-30T17:44:06.890Z,81.35
2019-01-30T17:47:13.729Z,63.55
2019-01-30T17:49:43.221Z,62.43
2019-01-30T17:52:32.774Z,62.53
2019-01-30T17:55:16.271Z,66.87
2019-01-30T17:57:43.112Z,65.28
2019-01-30T18:00:25.934Z,60.70
2019-01-30T18:02:55.368Z,65.75
2019-01-30T18:05:24.683Z,74.30
2019-01-30T18:07:54.030Z,82.15
2019-01-30T18:11:05.878Z,82.10
2019-01-30T18:17:27.244Z,73.10
2019-01-30T18:19:46.172Z,79.80
2019-01-30T18:23:10.651Z,102.85
2019-01-30T18:25:49.018Z,74.80
2019-01-30T18:29:20.184Z,80.87
2019-01-30T18:31:29.703Z,96.72
2019-01-30T18:34:36.201Z,91.95
2019-01-30T18:37:02.830Z,80.60
2019-01-30T18:39:32.158Z,73.70
2019-01-30T18:42:01.464Z,71.97
2019-01-30T18:44:34.398Z,64.03
2019-01-30T18:47:26.696Z,61.42
2019-01-30T18:49:56.073Z,63.60
2019-01-30T18:52:27.158Z,63.95
2019-01-30T18:54:56.712Z,61.00
2019-01-30T18:57:26.088Z,67.00
2019-01-30T18:59:55.359Z,63.17
2019-01-30T19:02:26.463Z,63.65
2019-01-30T19:04:55.784Z,61.42
2019-01-30T19:07:25.005Z,67.15
2019-01-30T19:09:54.260Z,70.28
2019-01-30T19:12:23.683Z,70.90
2019-01-30T19:14:55.892Z,66.65
2019-01-30T19:17:30.222Z,65.80
2019-01-30T19:20:03.889Z,66.90
2019-01-30T19:28:16.061Z,65.20
2019-01-30T19:30:45.191Z,71.55
2019-01-30T19:33:15.641Z,68.40
2019-01-30T19:35:46.976Z,69.35
2019-01-30T19:38:16.305Z,68.97
2019-01-30T19:40:45.509Z,69.55
2019-01-30T19:43:14.773Z,70.78
2019-01-30T19:45:43.946Z,76.20
2019-01-30T19:48:13.118Z,71.10
2019-01-30T19:50:42.312Z,100.00
2019-01-30T19:53:11.567Z,72.58
2019-01-30T19:55:40.748Z,82.75
2019-01-30T19:58:12.223Z,67.82
2019-01-30T20:00:48.964Z,70.25
2019-01-30T20:03:24.239Z,74.60
2019-01-30T20:05:53.428Z,79.03
2019-01-30T20:08:23.533Z,75.95
2019-01-30T20:10:52.665Z,68.97
2019-01-30T20:13:21.888Z,68.37
2019-01-30T20:15:51.088Z,64.85
2019-01-30T20:18:20.228Z,67.20
2019-01-30T20:20:49.517Z,66.87
2019-01-30T20:23:20.154Z,62.65
2019-01-30T20:25:49.478Z,65.32
2019-01-30T20:28:19.720Z,66.92
2019-01-30T20:30:48.888Z,63.02
2019-01-30T20:33:18.034Z,67.35
2019-01-30T20:35:47.493Z,65.85
2019-01-30T20:38:16.626Z,66.90
2019-01-30T20:40:45.875Z,70.47
2019-01-30T20:43:15.021Z,70.05
2019-01-30T20:45:44.219Z,69.17
2019-01-30T20:48:13.388Z,67.42
2019-01-30T20:50:59.362Z,66.05
2019-01-30T20:53:28.544Z,63.60
2019-01-30T20:55:57.751Z,66.62
2019-01-30T20:58:26.884Z,64.85
2019-01-30T21:00:56.047Z,62.43
2019-01-30T21:03:26.214Z,64.10
2019-01-30T21:05:55.391Z,58.95
2019-01-30T21:08:24.520Z,57.00
2019-01-30T21:10:53.710Z,59.42
2019-01-30T21:13:22.845Z,54.77
2019-01-30T21:15:53.081Z,55.88
2019-01-30T21:18:22.285Z,57.13
2019-01-30T21:20:51.474Z,58.00
2019-01-30T21:23:20.647Z,59.77
2019-01-30T21:25:50.150Z,58.58
2019-01-30T21:28:19.428Z,56.65
2019-01-30T21:30:48.675Z,61.43
2019-01-30T21:33:17.951Z,59.23
2019-01-30T21:35:47.240Z,59.03
2019-01-30T21:38:16.532Z,59.45
2019-01-30T21:40:45.733Z,57.80
2019-01-30T21:43:14.975Z,59.18
2019-01-30T21:45:49.955Z,60.92
2019-01-30T21:48:43.313Z,59.75
2019-01-30T21:50:51.665Z,59.90
2019-01-30T21:53:20.936Z,62.48
2019-01-30T21:55:50.074Z,60.38
2019-01-30T21:58:19.310Z,62.48
2019-01-30T22:00:48.449Z,62.30
2019-01-30T22:03:17.671Z,60.78
2019-01-30T22:05:46.871Z,64.42
2019-01-30T22:08:16.378Z,63.42
2019-01-30T22:10:50.151Z,65.37
2019-01-30T22:13:19.330Z,63.85
2019-01-30T22:15:48.480Z,64.45
2019-01-30T22:18:17.804Z,71.25
2019-01-30T22:20:46.991Z,63.65
2019-01-30T22:23:16.164Z,64.92
2019-01-30T22:25:45.319Z,65.12
2019-01-30T22:28:14.473Z,64.90
2019-01-30T22:30:43.669Z,63.10
2019-01-30T22:33:12.855Z,62.95
2019-01-30T22:35:42.019Z,64.85
2019-01-30T22:38:12.827Z,59.00
2019-01-30T22:40:42.208Z,61.65
2019-01-30T22:43:11.391Z,62.00
2019-01-30T22:45:40.541Z,60.08
2019-01-30T22:48:09.664Z,62.55
2019-01-30T22:50:38.832Z,57.85
2019-01-30T22:53:07.954Z,65.05
2019-01-30T22:55:37.072Z,61.70
2019-01-30T22:58:06.201Z,59.15
2019-01-30T23:01:04.827Z,57.98
2019-01-30T23:04:10.225Z,58.98
2019-01-30T23:07:05.516Z,57.50
2019-01-30T23:10:21.214Z,60.30
2019-01-30T23:13:37.543Z,58.78
2019-01-30T23:16:49.648Z,56.40
2019-01-30T23:19:39.484Z,62.17
2019-01-30T23:22:38.067Z,57.80
2019-01-30T23:25:51.168Z,59.24
2019-01-30T23:29:06.231Z,59.93
2019-01-30T23:31:50.142Z,59.45
2019-01-30T23:34:46.964Z,58.52
2019-01-30T23:37:49.681Z,60.58
2019-01-30T23:40:54.641Z,57.90
2019-01-30T23:43:37.953Z,63.35
2019-01-30T23:46:41.380Z,61.25
2019-01-30T23:52:38.039Z,58.48
2019-01-30T23:55:42.727Z,64.12
2019-01-30T23:58:36.829Z,58.60
